createdAt,value
2023-01-15T00:01:05.263Z,3.20
2023-01-15T00:03:31.995Z,3.40
2023-01-15T00:06:02.985Z,3.10
2023-01-15T00:08:29.580Z,3.30
2023-01-15T00:10:56.407Z,3.10
2023-01-15T00:13:23.168Z,3.20
2023-01-15T00:15:49.838Z,3.30
2023-01-15T00:18:16.450Z,3.40
2023-01-15T00:20:43.049Z,3.00
2023-01-15T00:23:29.601Z,3.20
2023-01-15T00:26:14.977Z,3.60
2023-01-15T00:28:41.804Z,2.80
2023-01-15T00:31:08.456Z,3.20
2023-01-15T00:33:35.050Z,2.70
2023-01-15T00:36:01.649Z,2.90
2023-01-15T00:38:28.230Z,2.70
2023-01-15T00:40:54.894Z,3.10
2023-01-15T00:43:21.486Z,3.00
2023-01-15T00:45:48.101Z,3.40
2023-01-15T00:48:14.778Z,2.80
2023-01-15T00:50:41.393Z,2.70
2023-01-15T00:53:07.995Z,2.70
2023-01-15T00:55:34.614Z,2.50
2023-01-15T00:58:01.212Z,3.20
2023-01-15T01:00:27.817Z,2.60
2023-01-15T01:02:54.412Z,2.50
2023-01-15T01:05:21.029Z,2.10
2023-01-15T01:07:47.664Z,2.40
2023-01-15T01:10:14.529Z,2.30
2023-01-15T01:12:41.132Z,2.40
2023-01-15T01:15:09.913Z,2.50
2023-01-15T01:17:39.858Z,2.20
2023-01-15T01:20:07.134Z,2.60
2023-01-15T01:22:33.716Z,2.50
2023-01-15T01:25:00.328Z,3.40
2023-01-15T01:27:26.934Z,3.60
2023-01-15T01:29:53.525Z,3.40
2023-01-15T01:32:20.105Z,3.20
2023-01-15T01:34:46.700Z,3.20
2023-01-15T01:37:13.283Z,3.60
2023-01-15T01:39:39.895Z,3.70
2023-01-15T01:42:16.765Z,3.40
2023-01-15T01:44:43.700Z,3.90
2023-01-15T01:47:15.346Z,3.20
2023-01-15T01:49:42.163Z,3.40
2023-01-15T01:52:11.093Z,3.00
2023-01-15T01:54:37.707Z,3.50
2023-01-15T01:57:05.186Z,3.10
2023-01-15T01:59:31.790Z,3.20
2023-01-15T02:01:58.535Z,3.20
2023-01-15T02:04:25.158Z,2.70
2023-01-15T02:06:51.808Z,3.10
2023-01-15T02:09:18.448Z,3.90
2023-01-15T02:11:45.175Z,3.40
2023-01-15T02:14:17.894Z,3.50
2023-01-15T02:16:53.801Z,4.10
2023-01-15T02:19:42.030Z,3.80
2023-01-15T02:22:24.491Z,3.30
2023-01-15T02:25:09.207Z,4.10
2023-01-15T02:27:36.419Z,3.20
2023-01-15T02:30:11.304Z,3.80
2023-01-15T02:32:58.602Z,4.10
2023-01-15T02:35:32.970Z,3.90
2023-01-15T02:38:00.939Z,3.30
2023-01-15T02:40:27.533Z,3.50
2023-01-15T02:42:54.306Z,3.40
2023-01-15T02:45:26.716Z,3.70
2023-01-15T02:47:53.838Z,3.80
2023-01-15T02:50:23.095Z,3.30
2023-01-15T02:52:51.570Z,3.00
2023-01-15T02:55:27.602Z,3.20
2023-01-15T02:57:55.798Z,3.20
2023-01-15T03:00:22.705Z,2.70
2023-01-15T03:03:01.682Z,3.00
2023-01-15T03:05:31.963Z,3.00
2023-01-15T03:08:00.733Z,3.10
2023-01-15T03:10:53.184Z,3.80
2023-01-15T03:13:37.801Z,3.10
2023-01-15T03:16:35.705Z,3.80
2023-01-15T03:19:23.676Z,3.70
2023-01-15T03:21:57.514Z,3.10
2023-01-15T03:24:37.308Z,3.50
2023-01-15T03:27:03.942Z,3.40
2023-01-15T03:29:36.602Z,3.70
2023-01-15T03:32:03.487Z,3.60
2023-01-15T03:34:51.126Z,4.20
2023-01-15T03:37:18.396Z,3.30
2023-01-15T03:39:45.048Z,3.80
2023-01-15T03:42:45.572Z,3.90
2023-01-15T03:45:23.635Z,3.50
2023-01-15T03:47:59.103Z,3.70
2023-01-15T03:50:37.373Z,4.10
2023-01-15T03:53:34.113Z,3.90
2023-01-15T03:56:08.692Z,3.50
2023-01-15T03:58:44.528Z,3.20
2023-01-15T04:01:12.800Z,3.60
2023-01-15T04:03:39.473Z,3.10
2023-01-15T04:06:06.298Z,3.50
2023-01-15T04:08:35.546Z,3.10
2023-01-15T04:11:02.393Z,2.70
2023-01-15T04:13:31.246Z,2.70
2023-01-15T04:15:58.421Z,3.00
2023-01-15T04:18:25.120Z,2.80
2023-01-15T04:20:51.788Z,2.70
2023-01-15T04:23:18.393Z,3.40
2023-01-15T04:25:44.985Z,3.10
2023-01-15T04:28:12.955Z,3.40
2023-01-15T04:30:39.708Z,2.80
2023-01-15T04:33:06.376Z,3.70
2023-01-15T04:35:33.040Z,3.70
2023-01-15T04:37:59.810Z,3.70
2023-01-15T04:40:45.343Z,3.40
2023-01-15T04:43:31.372Z,3.00
2023-01-15T04:45:58.172Z,2.70
2023-01-15T04:48:24.912Z,3.20
2023-01-15T04:50:51.543Z,2.90
2023-01-15T04:53:18.216Z,2.90
2023-01-15T04:55:44.793Z,3.10
2023-01-15T04:58:11.393Z,3.80
2023-01-15T05:00:38.106Z,3.50
2023-01-15T05:03:04.711Z,3.20
2023-01-15T05:05:32.524Z,3.50
2023-01-15T05:07:59.145Z,3.50
2023-01-15T05:10:25.735Z,3.60
2023-01-15T05:12:52.347Z,2.90
2023-01-15T05:15:18.931Z,3.30
2023-01-15T05:17:45.547Z,2.70
2023-01-15T05:20:12.479Z,3.50
2023-01-15T05:22:39.228Z,3.60
2023-01-15T05:25:06.176Z,2.90
2023-01-15T05:27:32.783Z,2.50
2023-01-15T05:29:59.372Z,2.40
2023-01-15T05:32:25.974Z,2.50
2023-01-15T05:34:52.567Z,1.90
2023-01-15T05:37:19.179Z,1.80
2023-01-15T05:39:45.769Z,2.20
2023-01-15T05:42:12.530Z,2.00
2023-01-15T05:44:39.170Z,1.50
2023-01-15T05:47:05.991Z,1.80
2023-01-15T05:49:32.858Z,1.70
2023-01-15T05:52:00.527Z,2.70
2023-01-15T05:54:34.258Z,2.40
2023-01-15T05:57:01.434Z,2.70
2023-01-15T05:59:28.873Z,2.30
2023-01-15T06:01:55.613Z,1.80
2023-01-15T06:04:22.331Z,2.40
2023-01-15T06:06:49.763Z,2.80
2023-01-15T06:09:16.688Z,2.20
2023-01-15T06:11:43.310Z,2.50
2023-01-15T06:14:11.000Z,1.90
2023-01-15T06:16:39.177Z,2.60
2023-01-15T06:19:07.616Z,2.30
2023-01-15T06:21:34.723Z,2.90
2023-01-15T06:24:01.452Z,2.10
2023-01-15T06:26:28.212Z,2.80
2023-01-15T06:28:54.872Z,2.70
2023-01-15T06:31:22.420Z,2.40
2023-01-15T06:33:49.242Z,2.80
2023-01-15T06:36:17.938Z,2.80
2023-01-15T06:38:44.971Z,2.70
2023-01-15T06:41:35.421Z,2.30
2023-01-15T06:44:20.530Z,3.20
2023-01-15T06:47:06.646Z,2.90
2023-01-15T06:49:33.805Z,3.10
2023-01-15T06:52:00.549Z,2.30
2023-01-15T06:54:27.289Z,2.60
2023-01-15T06:56:53.874Z,3.00
2023-01-15T06:59:20.536Z,3.00
2023-01-15T07:01:48.267Z,3.10
2023-01-15T07:04:15.105Z,2.70
2023-01-15T07:06:41.743Z,3.10
2023-01-15T07:09:08.360Z,3.20
2023-01-15T07:11:35.120Z,3.10
2023-01-15T07:14:07.619Z,3.00
2023-01-15T07:16:37.250Z,3.20
2023-01-15T07:19:04.208Z,2.60
2023-01-15T07:21:30.911Z,3.00
2023-01-15T07:24:01.019Z,3.00
2023-01-15T07:26:27.708Z,3.00
2023-01-15T07:28:54.463Z,3.10
2023-01-15T07:31:21.213Z,3.10
2023-01-15T07:33:47.819Z,3.00
2023-01-15T07:36:14.420Z,3.10
2023-01-15T07:38:41.042Z,3.40
2023-01-15T07:41:26.199Z,2.60
2023-01-15T07:44:11.221Z,3.10
2023-01-15T07:46:56.389Z,3.20
2023-01-15T07:49:41.552Z,2.70
2023-01-15T07:52:08.170Z,3.20
2023-01-15T07:54:34.781Z,2.50
2023-01-15T07:57:01.370Z,2.90
2023-01-15T07:59:27.995Z,3.10
2023-01-15T08:01:54.807Z,3.30
2023-01-15T08:04:21.460Z,3.10
2023-01-15T08:06:48.106Z,3.30
2023-01-15T08:09:14.762Z,2.90
2023-01-15T08:11:59.869Z,3.20
2023-01-15T08:14:44.926Z,3.00
2023-01-15T08:17:11.512Z,3.10
2023-01-15T08:19:38.183Z,2.80
2023-01-15T08:22:04.774Z,3.10
2023-01-15T08:24:31.374Z,2.70
2023-01-15T08:26:58.000Z,2.90
2023-01-15T08:29:24.598Z,3.10
2023-01-15T08:31:51.235Z,3.40
2023-01-15T08:34:19.071Z,2.60
2023-01-15T08:36:45.711Z,3.00
2023-01-15T08:39:12.397Z,2.90
2023-01-15T08:41:39.019Z,3.40
2023-01-15T08:44:05.727Z,3.30
2023-01-15T08:46:32.407Z,3.40
2023-01-15T08:48:58.990Z,3.30
2023-01-15T08:51:25.649Z,3.20
2023-01-15T08:53:52.358Z,2.70
2023-01-15T08:56:20.013Z,2.50
2023-01-15T08:58:47.206Z,2.70
2023-01-15T09:01:16.681Z,2.70
2023-01-15T09:03:43.389Z,2.60
2023-01-15T09:06:11.130Z,3.00
2023-01-15T09:08:37.809Z,3.10
2023-01-15T09:11:05.367Z,2.60
2023-01-15T09:13:32.071Z,3.10
2023-01-15T09:16:02.897Z,3.10
2023-01-15T09:18:29.623Z,2.60
2023-01-15T09:20:56.330Z,2.80
2023-01-15T09:23:22.923Z,2.90
2023-01-15T09:25:54.470Z,2.70
2023-01-15T09:28:21.238Z,3.10
2023-01-15T09:30:48.119Z,3.60
2023-01-15T09:33:14.786Z,3.60
2023-01-15T09:35:45.110Z,3.70
2023-01-15T09:38:15.908Z,3.30
2023-01-15T09:40:48.177Z,3.10
2023-01-15T09:43:50.055Z,2.90
2023-01-15T09:46:23.731Z,3.30
2023-01-15T09:49:09.335Z,3.00
2023-01-15T09:51:48.687Z,2.80
2023-01-15T09:54:23.411Z,3.30
2023-01-15T09:56:50.058Z,3.00
2023-01-15T09:59:33.557Z,3.50
2023-01-15T10:02:03.285Z,3.50
2023-01-15T10:04:42.982Z,3.40
2023-01-15T10:07:32.713Z,3.40
2023-01-15T10:10:09.544Z,3.40
2023-01-15T10:12:36.591Z,3.20
2023-01-15T10:15:36.970Z,3.30
2023-01-15T10:18:04.044Z,3.50
2023-01-15T10:20:49.751Z,3.20
2023-01-15T10:23:36.663Z,2.90
2023-01-15T10:26:08.397Z,3.30
2023-01-15T10:28:50.405Z,3.10
2023-01-15T10:31:20.053Z,3.20
2023-01-15T10:34:08.513Z,3.40
2023-01-15T10:36:39.151Z,3.70
2023-01-15T10:39:21.306Z,3.40
2023-01-15T10:42:03.270Z,3.20
2023-01-15T10:44:47.728Z,3.60
2023-01-15T10:47:16.053Z,3.70
2023-01-15T10:49:42.720Z,3.70
2023-01-15T10:52:35.723Z,3.40
2023-01-15T10:55:05.592Z,3.70
2023-01-15T10:57:45.506Z,3.20
2023-01-15T11:00:12.573Z,3.70
2023-01-15T11:03:08.774Z,3.30
2023-01-15T11:05:35.913Z,3.40
2023-01-15T11:08:39.481Z,3.70
2023-01-15T11:10:51.173Z,3.50
2023-01-15T11:13:41.029Z,3.60
2023-01-15T11:16:36.582Z,3.30
2023-01-15T11:19:22.551Z,3.50
2023-01-15T11:21:49.231Z,3.50
2023-01-15T11:24:16.713Z,3.40
2023-01-15T11:26:46.917Z,3.80
2023-01-15T11:29:32.976Z,3.70
2023-01-15T11:31:59.594Z,3.30
2023-01-15T11:34:26.216Z,3.70
2023-01-15T11:37:05.480Z,3.50
2023-01-15T11:39:32.167Z,3.90
2023-01-15T11:42:24.368Z,3.70
2023-01-15T11:45:13.556Z,3.40
2023-01-15T11:47:58.484Z,3.60
2023-01-15T11:50:43.628Z,3.50
2023-01-15T11:53:18.503Z,3.50
2023-01-15T11:56:32.032Z,3.50
2023-01-15T11:59:01.183Z,3.40
2023-01-15T12:01:36.384Z,3.70
2023-01-15T12:04:38.616Z,3.70
2023-01-15T12:07:06.711Z,4.00
2023-01-15T12:09:58.390Z,3.60
2023-01-15T12:12:31.988Z,3.80
2023-01-15T12:15:07.469Z,3.70
2023-01-15T12:17:57.481Z,3.90
2023-01-15T12:20:48.751Z,3.50
2023-01-15T12:24:02.922Z,3.50
2023-01-15T12:26:59.299Z,3.90
2023-01-15T12:29:57.068Z,3.70
2023-01-15T12:32:26.305Z,3.90
2023-01-15T12:35:06.597Z,3.90
2023-01-15T12:37:41.817Z,3.60
2023-01-15T12:40:14.628Z,3.70
2023-01-15T12:43:00.391Z,3.80
2023-01-15T12:45:29.808Z,3.80
2023-01-15T12:48:06.935Z,4.00
2023-01-15T12:50:47.610Z,3.80
2023-01-15T12:53:46.287Z,3.90
2023-01-15T12:56:15.647Z,3.90
2023-01-15T12:58:47.640Z,3.90
2023-01-15T13:01:29.845Z,3.70
2023-01-15T13:04:17.135Z,3.80
2023-01-15T13:06:48.697Z,3.80
2023-01-15T13:09:36.351Z,3.90
2023-01-15T13:12:02.968Z,3.90
2023-01-15T13:14:30.285Z,3.90
2023-01-15T13:17:26.300Z,4.00
2023-01-15T13:20:16.970Z,3.60
2023-01-15T13:23:06.551Z,3.70
2023-01-15T13:25:50.182Z,3.80
2023-01-15T13:28:28.800Z,3.70
2023-01-15T13:31:07.410Z,3.80
2023-01-15T13:33:36.824Z,3.70
2023-01-15T13:36:25.452Z,3.70
2023-01-15T13:38:54.569Z,3.50
2023-01-15T13:41:42.704Z,3.80
2023-01-15T13:44:22.147Z,3.80
2023-01-15T13:46:57.717Z,3.70
2023-01-15T13:49:27.841Z,3.70
2023-01-15T13:51:56.479Z,4.00
2023-01-15T13:54:23.075Z,3.50
2023-01-15T13:56:49.670Z,3.50
2023-01-15T13:59:44.381Z,3.60
2023-01-15T14:02:26.377Z,3.80
2023-01-15T14:04:53.758Z,3.80
2023-01-15T14:07:40.623Z,3.80
2023-01-15T14:10:28.411Z,3.80
2023-01-15T14:13:01.449Z,3.80
2023-01-15T14:15:38.232Z,3.70
2023-01-15T14:18:35.535Z,3.70
2023-01-15T14:21:27.570Z,3.80
2023-01-15T14:24:17.247Z,3.70
2023-01-15T14:26:55.800Z,3.80
2023-01-15T14:29:43.430Z,3.70
2023-01-15T14:32:48.660Z,3.60
2023-01-15T14:35:22.496Z,3.50
2023-01-15T14:37:57.709Z,3.50
2023-01-15T14:40:31.004Z,3.80
2023-01-15T14:43:01.341Z,3.90
2023-01-15T14:45:38.331Z,3.70
2023-01-15T14:48:10.982Z,3.70
2023-01-15T14:50:42.249Z,3.60
2023-01-15T14:53:13.213Z,3.40
2023-01-15T14:55:58.483Z,3.50
2023-01-15T14:59:03.535Z,3.70
2023-01-15T15:01:44.801Z,3.90
2023-01-15T15:04:36.959Z,3.60
2023-01-15T15:07:07.425Z,3.40
2023-01-15T15:09:43.862Z,3.30
2023-01-15T15:12:39.497Z,3.00
2023-01-15T15:15:08.955Z,3.20
2023-01-15T15:17:40.843Z,3.70
2023-01-15T15:20:24.499Z,3.40
2023-01-15T15:22:55.606Z,3.50
2023-01-15T15:25:23.756Z,3.30
2023-01-15T15:28:01.710Z,3.60
2023-01-15T15:30:28.381Z,3.50
2023-01-15T15:32:54.997Z,3.70
2023-01-15T15:35:29.419Z,3.40
2023-01-15T15:37:56.052Z,3.40
2023-01-15T15:40:26.050Z,3.70
2023-01-15T15:43:17.330Z,3.40
2023-01-15T15:46:10.815Z,3.40
2023-01-15T15:48:44.888Z,3.60
2023-01-15T15:51:30.586Z,3.70
2023-01-15T15:54:16.063Z,3.50
2023-01-15T15:57:13.656Z,3.60
2023-01-15T15:59:48.961Z,3.40
2023-01-15T16:02:25.630Z,3.40
2023-01-15T16:04:53.793Z,3.30
2023-01-15T16:07:37.363Z,3.30
2023-01-15T16:10:07.834Z,3.60
2023-01-15T16:12:35.446Z,3.60
2023-01-15T16:15:02.170Z,3.60
2023-01-15T16:17:28.770Z,3.40
2023-01-15T16:19:55.773Z,3.40
2023-01-15T16:22:22.407Z,3.40
2023-01-15T16:24:56.644Z,3.60
2023-01-15T16:27:24.735Z,3.60
2023-01-15T16:29:52.880Z,3.50
2023-01-15T16:32:28.262Z,3.20
2023-01-15T16:35:08.408Z,3.40
2023-01-15T16:37:35.891Z,3.20
2023-01-15T16:40:04.048Z,3.40
2023-01-15T16:42:34.292Z,3.50
2023-01-15T16:45:02.754Z,3.40
2023-01-15T16:47:33.388Z,3.40
2023-01-15T16:50:21.908Z,3.60
2023-01-15T16:52:56.051Z,3.30
2023-01-15T16:55:35.728Z,3.20
2023-01-15T16:58:14.573Z,3.30
2023-01-15T17:00:52.861Z,3.40
2023-01-15T17:03:23.639Z,3.40
2023-01-15T17:05:55.194Z,3.30
2023-01-15T17:08:24.282Z,3.30
2023-01-15T17:10:59.046Z,3.30
2023-01-15T17:13:39.029Z,3.40
2023-01-15T17:16:17.496Z,3.00
2023-01-15T17:18:44.582Z,3.30
2023-01-15T17:21:17.804Z,3.50
2023-01-15T17:23:44.567Z,3.20
2023-01-15T17:26:18.975Z,3.70
2023-01-15T17:28:46.127Z,3.50
2023-01-15T17:31:29.381Z,3.30
2023-01-15T17:33:59.997Z,3.40
2023-01-15T17:36:27.765Z,3.30
2023-01-15T17:38:54.821Z,3.50
2023-01-15T17:41:22.146Z,3.50
2023-01-15T17:43:49.157Z,3.20
2023-01-15T17:46:16.849Z,3.10
2023-01-15T17:48:43.497Z,3.20
2023-01-15T17:51:11.663Z,3.20
2023-01-15T17:53:38.273Z,3.10
2023-01-15T17:56:23.445Z,3.00
2023-01-15T17:59:08.838Z,3.20
2023-01-15T18:02:01.759Z,3.10
2023-01-15T18:05:19.220Z,2.50
2023-01-15T18:07:45.798Z,3.00
2023-01-15T18:10:18.662Z,3.20
2023-01-15T18:12:45.348Z,2.90
2023-01-15T18:15:11.974Z,2.90
2023-01-15T18:17:38.574Z,3.20
2023-01-15T18:20:05.789Z,3.10
2023-01-15T18:22:32.410Z,3.00
2023-01-15T18:24:59.061Z,3.20
2023-01-15T18:27:29.898Z,3.10
2023-01-15T18:29:57.440Z,2.80
2023-01-15T18:32:24.102Z,3.10
2023-01-15T18:34:50.756Z,3.20
2023-01-15T18:37:17.369Z,3.00
2023-01-15T18:39:44.017Z,2.80
2023-01-15T18:42:10.749Z,3.10
2023-01-15T18:44:55.840Z,3.10
2023-01-15T18:47:25.083Z,2.90
2023-01-15T18:49:53.770Z,2.80
2023-01-15T18:52:39.011Z,2.80
2023-01-15T18:55:06.317Z,2.90
2023-01-15T18:57:33.999Z,3.00
2023-01-15T19:00:00.698Z,2.80
2023-01-15T19:02:27.360Z,2.80
2023-01-15T19:04:54.005Z,2.90
2023-01-15T19:07:20.686Z,2.80
2023-01-15T19:09:47.311Z,3.20
2023-01-15T19:12:15.128Z,3.10
2023-01-15T19:15:00.230Z,2.80
2023-01-15T19:17:45.685Z,3.00
2023-01-15T19:20:15.443Z,3.20
2023-01-15T19:23:00.154Z,3.40
2023-01-15T19:25:37.687Z,3.10
2023-01-15T19:28:05.070Z,3.20
2023-01-15T19:30:32.764Z,3.40
2023-01-15T19:32:59.367Z,3.10
2023-01-15T19:35:26.008Z,3.30
2023-01-15T19:37:54.934Z,3.10
2023-01-15T19:40:22.639Z,3.30
2023-01-15T19:43:11.359Z,3.30
2023-01-15T19:45:58.128Z,3.30
2023-01-15T19:48:43.130Z,3.60
2023-01-15T19:51:09.746Z,3.40
2023-01-15T19:53:40.211Z,3.20
2023-01-15T19:56:07.509Z,3.50
2023-01-15T19:58:34.287Z,3.50
2023-01-15T20:01:01.021Z,3.40
2023-01-15T20:03:27.670Z,3.30
2023-01-15T20:05:54.786Z,3.20
2023-01-15T20:08:21.467Z,3.50
2023-01-15T20:10:49.382Z,3.30
2023-01-15T20:13:38.088Z,3.40
2023-01-15T20:16:11.763Z,3.30
2023-01-15T20:18:38.706Z,3.40
2023-01-15T20:21:05.484Z,3.30
2023-01-15T20:23:32.069Z,3.40
2023-01-15T20:26:03.640Z,3.60
2023-01-15T20:28:30.315Z,3.70
2023-01-15T20:30:57.550Z,3.50
2023-01-15T20:33:24.723Z,3.60
2023-01-15T20:35:53.905Z,3.60
2023-01-15T20:38:24.826Z,3.60
2023-01-15T20:40:52.152Z,3.80
2023-01-15T20:43:40.287Z,3.60
2023-01-15T20:46:11.975Z,3.70
2023-01-15T20:48:57.417Z,3.60
2023-01-15T20:51:24.181Z,3.60
2023-01-15T20:53:52.993Z,3.40
2023-01-15T20:56:19.643Z,3.40
2023-01-15T20:58:46.250Z,3.30
2023-01-15T21:01:13.065Z,3.70
2023-01-15T21:03:39.863Z,3.30
2023-01-15T21:06:07.351Z,3.40
2023-01-15T21:08:34.699Z,3.60
2023-01-15T21:11:01.335Z,3.40
2023-01-15T21:13:27.983Z,3.30
2023-01-15T21:15:59.250Z,3.30
2023-01-15T21:18:26.841Z,3.50
2023-01-15T21:20:53.634Z,3.40
2023-01-15T21:23:20.359Z,3.50
2023-01-15T21:25:47.098Z,3.20
2023-01-15T21:28:13.929Z,3.60
2023-01-15T21:30:41.031Z,3.40
2023-01-15T21:33:08.926Z,3.40
2023-01-15T21:35:38.952Z,3.30
2023-01-15T21:38:05.595Z,3.40
2023-01-15T21:40:32.180Z,3.70
2023-01-15T21:43:17.303Z,3.50
2023-01-15T21:45:43.948Z,3.50
2023-01-15T21:48:10.531Z,3.40
2023-01-15T21:50:37.725Z,3.40
2023-01-15T21:53:04.338Z,3.30
2023-01-15T21:55:31.003Z,3.20
2023-01-15T21:57:58.635Z,3.50
2023-01-15T22:00:25.261Z,3.10
2023-01-15T22:02:54.097Z,3.40
2023-01-15T22:05:20.873Z,3.30
2023-01-15T22:07:47.512Z,3.40
2023-01-15T22:10:14.230Z,3.30
2023-01-15T22:12:42.973Z,3.20
2023-01-15T22:15:10.545Z,3.50
2023-01-15T22:17:37.168Z,3.40
2023-01-15T22:20:05.924Z,3.50
2023-01-15T22:22:35.676Z,3.30
2023-01-15T22:25:02.677Z,3.30
2023-01-15T22:27:30.338Z,3.30
2023-01-15T22:29:56.963Z,3.30
2023-01-15T22:32:23.566Z,3.60
2023-01-15T22:34:50.245Z,3.60
2023-01-15T22:37:16.863Z,3.40
2023-01-15T22:39:43.581Z,3.50
2023-01-15T22:42:24.275Z,3.60
2023-01-15T22:44:51.557Z,3.60
2023-01-15T22:47:18.732Z,3.30
2023-01-15T22:49:45.342Z,3.40
2023-01-15T22:52:13.130Z,3.40
2023-01-15T22:54:41.272Z,3.60
2023-01-15T22:57:07.876Z,3.60
2023-01-15T22:59:34.472Z,3.50
2023-01-15T23:02:01.180Z,3.30
2023-01-15T23:04:28.039Z,3.60
2023-01-15T23:06:54.740Z,3.20
2023-01-15T23:09:22.296Z,3.40
2023-01-15T23:11:51.157Z,3.50
2023-01-15T23:14:18.112Z,3.50
2023-01-15T23:16:44.819Z,3.40
2023-01-15T23:19:12.157Z,3.40
2023-01-15T23:21:39.243Z,3.30
2023-01-15T23:24:06.198Z,3.30
2023-01-15T23:26:33.555Z,3.20
2023-01-15T23:29:00.419Z,3.50
2023-01-15T23:31:27.222Z,3.20
2023-01-15T23:33:54.014Z,3.40
2023-01-15T23:36:20.798Z,3.60
2023-01-15T23:38:47.526Z,3.50
2023-01-15T23:41:16.087Z,3.70
2023-01-15T23:44:01.807Z,3.60
2023-01-15T23:46:34.623Z,3.30
2023-01-15T23:49:07.836Z,3.50
2023-01-15T23:51:34.838Z,3.40
2023-01-15T23:54:01.655Z,3.40
2023-01-15T23:56:29.151Z,3.50
2023-01-15T23:58:56.430Z,3.60
